Rio Verde de Mato Grosso, Brazil
Current Conditions -  °F | °C
As of 7:29 PM on Monday 24 Nov 2014 (Local Time) from SBCG Reporting Station
Thunderstorm Thunderstorm  
Wind Chill: 79°   Ceiling: Unl
Heat Index: 81°   Visibility: 6mi
Dew Point: 70°   Wind: 3mph
Humidity: 74%   Direction: 260°W
Pressure: 29.83"   Gusts: NA
Location:  18.92°S, 54.84°W
Report Text: SBCG 242229Z 26003KT 9999 VCTS FEW040 FEW045CB 26/21 Q1010
Loading
Personal Weather Stations






























Interactive Weather Map New forecast layout! Learn more

10-Day Weather Forecast

Advertisements
Track Severe Weather on mobile